createdAt,value
2022-11-05T00:01:48.728Z,15.36
2022-11-05T00:04:34.505Z,15.33
2022-11-05T00:07:25.637Z,15.35
2022-11-05T00:09:58.867Z,15.40
2022-11-05T00:12:44.434Z,15.40
2022-11-05T00:15:31.106Z,15.43
2022-11-05T00:17:59.083Z,15.61
2022-11-05T00:20:27.192Z,15.67
2022-11-05T00:23:18.950Z,15.68
2022-11-05T00:25:55.161Z,15.68
2022-11-05T00:28:23.175Z,15.64
2022-11-05T00:30:53.713Z,15.52
2022-11-05T00:33:21.896Z,15.61
2022-11-05T00:35:49.861Z,15.61
2022-11-05T00:38:17.806Z,15.56
2022-11-05T00:40:46.261Z,15.64
2022-11-05T00:43:31.669Z,15.63
2022-11-05T00:46:01.030Z,15.70
2022-11-05T00:48:46.543Z,15.71
2022-11-05T00:51:14.627Z,15.75
2022-11-05T00:53:42.684Z,15.69
2022-11-05T00:56:10.781Z,15.71
2022-11-05T00:58:38.747Z,15.55
2022-11-05T01:01:08.307Z,15.58
2022-11-05T01:03:38.215Z,15.46
2022-11-05T01:06:11.647Z,15.48
2022-11-05T01:08:40.297Z,15.50
2022-11-05T01:11:13.174Z,15.49
2022-11-05T01:13:41.541Z,15.37
2022-11-05T01:16:11.835Z,15.30
2022-11-05T01:18:40.254Z,15.14
2022-11-05T01:21:12.479Z,15.08
2022-11-05T01:23:40.489Z,14.83
2022-11-05T01:26:08.482Z,14.99
2022-11-05T01:28:36.501Z,14.77
2022-11-05T01:31:04.626Z,14.80
2022-11-05T01:33:34.073Z,14.52
2022-11-05T01:36:02.013Z,14.16
2022-11-05T01:38:30.032Z,13.60
2022-11-05T01:40:58.021Z,13.12
2022-11-05T01:43:26.047Z,13.94
2022-11-05T01:45:57.591Z,14.46
2022-11-05T01:48:30.810Z,14.58
2022-11-05T01:51:04.762Z,14.38
2022-11-05T01:53:38.035Z,14.49
2022-11-05T01:56:10.460Z,14.12
2022-11-05T01:58:43.690Z,13.74
2022-11-05T02:01:12.780Z,13.86
2022-11-05T02:03:41.916Z,13.70
2022-11-05T02:06:12.749Z,13.75
2022-11-05T02:08:53.137Z,13.46
2022-11-05T02:11:21.729Z,13.88
2022-11-05T02:13:50.570Z,14.31
2022-11-05T02:16:29.513Z,13.83
2022-11-05T02:19:08.469Z,13.74
2022-11-05T02:22:06.450Z,14.20
2022-11-05T02:24:57.961Z,13.57
2022-11-05T02:28:08.213Z,13.58
2022-11-05T02:30:46.938Z,13.33
2022-11-05T02:33:33.564Z,12.94
2022-11-05T02:36:29.785Z,12.50
2022-11-05T02:39:09.626Z,13.18
2022-11-05T02:41:48.916Z,12.92
2022-11-05T02:44:28.101Z,12.56
2022-11-05T02:47:05.713Z,12.50
2022-11-05T02:49:42.431Z,12.45
2022-11-05T02:52:17.385Z,12.48
2022-11-05T02:54:50.886Z,12.44
2022-11-05T02:57:20.703Z,12.33
2022-11-05T02:59:48.739Z,12.35
2022-11-05T03:02:18.203Z,12.37
2022-11-05T03:04:46.422Z,11.85
2022-11-05T03:07:31.993Z,11.96
2022-11-05T03:10:19.015Z,11.86
2022-11-05T03:12:58.226Z,11.72
2022-11-05T03:15:46.964Z,11.76
2022-11-05T03:18:20.098Z,12.26
2022-11-05T03:20:51.888Z,11.34
2022-11-05T03:23:28.812Z,11.98
2022-11-05T03:26:02.426Z,11.67
2022-11-05T03:28:35.712Z,11.47
2022-11-05T03:31:05.631Z,11.55
2022-11-05T03:33:37.800Z,11.46
2022-11-05T03:36:13.995Z,11.24
2022-11-05T03:38:47.198Z,11.93
2022-11-05T03:41:17.305Z,11.21
2022-11-05T03:43:50.482Z,11.54
2022-11-05T03:46:21.699Z,11.45
2022-11-05T03:48:55.376Z,11.59
2022-11-05T03:51:33.549Z,11.29
2022-11-05T03:54:04.201Z,11.39
2022-11-05T03:56:37.283Z,11.18
2022-11-05T03:59:07.602Z,11.84
2022-11-05T04:01:38.147Z,10.99
2022-11-05T04:04:08.662Z,10.96
2022-11-05T04:06:54.405Z,11.04
2022-11-05T04:09:40.095Z,10.81
2022-11-05T04:12:27.392Z,10.51
2022-11-05T04:14:55.445Z,10.31
2022-11-05T04:17:22.611Z,10.31
2022-11-05T04:20:09.641Z,10.63
2022-11-05T04:22:55.473Z,10.33
2022-11-05T04:25:23.878Z,11.13
2022-11-05T04:27:52.325Z,10.58
2022-11-05T04:30:20.338Z,10.59
2022-11-05T04:33:03.326Z,10.96
2022-11-05T04:35:34.828Z,10.83
2022-11-05T04:38:03.098Z,10.97
2022-11-05T04:40:31.219Z,10.81
2022-11-05T04:42:59.230Z,10.85
2022-11-05T04:45:29.809Z,10.87
2022-11-05T04:47:57.997Z,11.13
2022-11-05T04:50:25.926Z,10.56
2022-11-05T04:52:55.269Z,11.14
2022-11-05T04:55:23.337Z,11.21
2022-11-05T04:57:52.514Z,11.20
2022-11-05T05:00:22.084Z,11.21
2022-11-05T05:02:50.349Z,11.67
2022-11-05T05:05:18.440Z,11.86
2022-11-05T05:07:46.466Z,11.71
2022-11-05T05:10:15.869Z,11.40
2022-11-05T05:12:43.910Z,12.18
2022-11-05T05:15:11.908Z,11.77
2022-11-05T05:17:39.913Z,11.52
2022-11-05T05:20:25.967Z,11.61
2022-11-05T05:22:54.279Z,11.91
2022-11-05T05:25:24.414Z,11.88
2022-11-05T05:27:52.578Z,11.81
2022-11-05T05:30:20.660Z,10.96
2022-11-05T05:32:48.711Z,11.33
2022-11-05T05:35:17.027Z,11.18
2022-11-05T05:37:45.613Z,11.58
2022-11-05T05:40:13.627Z,11.43
2022-11-05T05:42:43.663Z,11.20
2022-11-05T05:45:12.887Z,10.88
2022-11-05T05:47:40.907Z,11.00
2022-11-05T05:50:09.360Z,10.73
2022-11-05T05:52:37.369Z,10.42
2022-11-05T05:55:05.920Z,10.80
2022-11-05T05:57:35.098Z,10.73
2022-11-05T06:00:05.685Z,10.93
2022-11-05T06:02:40.080Z,11.06
2022-11-05T06:05:08.628Z,10.90
2022-11-05T06:07:37.619Z,11.02
2022-11-05T06:10:07.437Z,10.77
2022-11-05T06:12:35.421Z,10.87
2022-11-05T06:15:05.387Z,10.57
2022-11-05T06:17:34.379Z,10.65
2022-11-05T06:20:02.477Z,10.54
2022-11-05T06:22:30.500Z,10.42
2022-11-05T06:24:58.697Z,10.41
2022-11-05T06:27:26.731Z,10.94
2022-11-05T06:29:54.724Z,10.70
2022-11-05T06:32:24.241Z,10.50
2022-11-05T06:34:52.241Z,10.55
2022-11-05T06:37:20.340Z,10.56
2022-11-05T06:39:48.381Z,10.83
2022-11-05T06:42:18.992Z,10.99
2022-11-05T06:44:47.770Z,10.90
2022-11-05T06:47:15.798Z,10.65
2022-11-05T06:49:45.181Z,10.64
2022-11-05T06:52:14.073Z,10.90
2022-11-05T06:54:42.818Z,10.76
2022-11-05T06:57:12.146Z,10.40
2022-11-05T06:59:40.830Z,11.13
2022-11-05T07:02:12.813Z,10.57
2022-11-05T07:04:40.868Z,10.86
2022-11-05T07:07:10.357Z,10.86
2022-11-05T07:09:40.594Z,10.83
2022-11-05T07:12:08.982Z,10.88
2022-11-05T07:14:36.971Z,10.88
2022-11-05T07:17:05.309Z,10.70
2022-11-05T07:19:33.363Z,10.83
2022-11-05T07:22:01.369Z,11.05
2022-11-05T07:24:30.755Z,10.37
2022-11-05T07:26:58.698Z,10.70
2022-11-05T07:29:26.799Z,10.48
2022-11-05T07:31:54.804Z,10.09
2022-11-05T07:34:22.773Z,10.17
2022-11-05T07:36:50.738Z,10.38
2022-11-05T07:39:18.688Z,10.75
2022-11-05T07:41:48.078Z,10.46
2022-11-05T07:44:17.636Z,10.72
2022-11-05T07:46:45.761Z,10.85
2022-11-05T07:49:13.726Z,10.50
2022-11-05T07:51:41.757Z,10.68
2022-11-05T07:54:09.719Z,10.36
2022-11-05T07:56:38.010Z,10.50
2022-11-05T07:59:07.741Z,10.10
2022-11-05T08:01:35.834Z,10.43
2022-11-05T08:04:03.995Z,10.72
2022-11-05T08:06:32.806Z,10.70
2022-11-05T08:09:01.047Z,10.35
2022-11-05T08:11:29.108Z,10.67
2022-11-05T08:13:57.184Z,10.52
2022-11-05T08:16:26.611Z,10.84
2022-11-05T08:18:54.638Z,10.48
2022-11-05T08:21:22.688Z,11.02
2022-11-05T08:23:50.720Z,10.96
2022-11-05T08:26:19.551Z,11.16
2022-11-05T08:28:47.541Z,10.87
2022-11-05T08:31:17.819Z,10.46
2022-11-05T08:33:47.116Z,11.02
2022-11-05T08:36:15.124Z,10.45
2022-11-05T08:38:43.262Z,10.92
2022-11-05T08:41:11.274Z,10.71
2022-11-05T08:43:39.256Z,10.93
2022-11-05T08:46:07.446Z,10.67
2022-11-05T08:48:35.522Z,11.13
2022-11-05T08:51:05.096Z,11.42
2022-11-05T08:53:33.121Z,10.77
2022-11-05T08:56:01.142Z,11.31
2022-11-05T08:58:30.358Z,11.24
2022-11-05T09:01:04.403Z,11.43
2022-11-05T09:03:33.079Z,11.74
2022-11-05T09:06:01.056Z,11.62
2022-11-05T09:08:30.521Z,12.13
2022-11-05T09:10:58.518Z,12.02
2022-11-05T09:13:27.171Z,11.90
2022-11-05T09:15:55.339Z,11.37
2022-11-05T09:18:23.408Z,10.94
2022-11-05T09:20:51.360Z,11.08
2022-11-05T09:23:19.501Z,10.85
2022-11-05T09:25:49.407Z,11.63
2022-11-05T09:28:20.371Z,10.98
2022-11-05T09:30:50.728Z,11.54
2022-11-05T09:33:20.568Z,11.68
2022-11-05T09:35:48.599Z,11.09
2022-11-05T09:38:16.849Z,11.02
2022-11-05T09:40:53.289Z,11.14
2022-11-05T09:43:31.257Z,11.08
2022-11-05T09:46:03.820Z,11.52
2022-11-05T09:48:34.495Z,11.16
2022-11-05T09:51:02.672Z,10.68
2022-11-05T09:53:30.719Z,10.85
2022-11-05T09:56:02.156Z,10.30
2022-11-05T09:58:38.977Z,10.75
2022-11-05T10:01:12.456Z,10.74
2022-11-05T10:03:46.836Z,10.29
2022-11-05T10:06:20.901Z,10.59
2022-11-05T10:08:52.829Z,10.59
2022-11-05T10:11:27.191Z,10.70
2022-11-05T10:14:00.402Z,11.14
2022-11-05T10:16:34.603Z,10.86
2022-11-05T10:19:09.928Z,10.83
2022-11-05T10:22:04.940Z,10.60
2022-11-05T10:24:26.951Z,10.59
2022-11-05T10:26:57.445Z,10.87
2022-11-05T10:29:30.484Z,10.74
2022-11-05T10:32:00.587Z,10.81
2022-11-05T10:34:32.123Z,11.09
2022-11-05T10:37:00.196Z,11.05
2022-11-05T10:39:28.781Z,10.81
2022-11-05T10:42:11.550Z,10.90
2022-11-05T10:44:45.316Z,11.08
2022-11-05T10:47:36.384Z,10.99
2022-11-05T10:50:09.957Z,11.33
2022-11-05T10:52:41.129Z,11.28
2022-11-05T10:55:18.201Z,11.51
2022-11-05T10:57:49.482Z,11.89
2022-11-05T11:00:28.322Z,12.06
2022-11-05T11:02:59.320Z,12.52
2022-11-05T11:05:31.272Z,12.43
2022-11-05T11:08:05.431Z,12.57
2022-11-05T11:10:42.550Z,12.12
2022-11-05T11:13:22.375Z,12.17
2022-11-05T11:15:51.233Z,11.88
2022-11-05T11:18:29.231Z,11.99
2022-11-05T11:21:07.816Z,11.74
2022-11-05T11:23:40.961Z,12.00
2022-11-05T11:26:10.253Z,11.63
2022-11-05T11:28:44.882Z,11.34
2022-11-05T11:31:16.412Z,11.21
2022-11-05T11:33:49.214Z,11.02
2022-11-05T11:36:20.555Z,11.37
2022-11-05T11:38:48.930Z,11.58
2022-11-05T11:41:26.801Z,11.96
2022-11-05T11:44:00.719Z,11.68
2022-11-05T11:46:33.954Z,11.28
2022-11-05T11:49:02.161Z,11.20
2022-11-05T11:51:35.163Z,11.28
2022-11-05T11:54:04.258Z,11.59
2022-11-05T11:56:44.629Z,12.07
2022-11-05T11:59:40.479Z,12.01
2022-11-05T12:02:35.457Z,11.78
2022-11-05T12:05:24.324Z,11.13
2022-11-05T12:07:54.514Z,11.17
2022-11-05T12:10:35.327Z,11.75
2022-11-05T12:13:30.792Z,11.47
2022-11-05T12:16:08.883Z,11.32
2022-11-05T12:18:48.866Z,11.09
2022-11-05T12:21:41.066Z,11.53
2022-11-05T12:24:30.041Z,11.57
2022-11-05T12:27:13.449Z,11.41
2022-11-05T12:29:52.322Z,11.49
2022-11-05T12:32:48.975Z,10.81
2022-11-05T12:35:35.854Z,11.40
2022-11-05T12:38:12.151Z,11.83
2022-11-05T12:41:07.029Z,11.84
2022-11-05T12:43:43.481Z,11.19
2022-11-05T12:46:30.385Z,11.33
2022-11-05T12:49:22.116Z,11.79
2022-11-05T12:52:01.638Z,11.81
2022-11-05T12:54:42.000Z,11.94
2022-11-05T12:57:13.395Z,11.50
2022-11-05T12:59:44.825Z,11.34
2022-11-05T13:02:22.217Z,11.71
2022-11-05T13:04:55.442Z,11.15
2022-11-05T13:07:29.236Z,11.62
2022-11-05T13:10:02.326Z,11.19
2022-11-05T13:12:34.706Z,11.46
2022-11-05T13:15:07.914Z,11.61
2022-11-05T13:17:52.806Z,11.54
2022-11-05T13:20:23.981Z,11.61
2022-11-05T13:22:56.665Z,12.05
2022-11-05T13:25:26.782Z,11.45
2022-11-05T13:28:02.963Z,11.56
2022-11-05T13:30:34.806Z,11.56
2022-11-05T13:33:07.059Z,11.59
2022-11-05T13:35:42.740Z,11.36
2022-11-05T13:38:36.914Z,11.61
2022-11-05T13:41:21.740Z,11.61
2022-11-05T13:44:11.531Z,11.33
2022-11-05T13:46:56.768Z,11.76
2022-11-05T13:49:55.414Z,11.45
2022-11-05T13:52:40.652Z,12.21
2022-11-05T13:55:27.304Z,11.51
2022-11-05T13:58:42.849Z,11.87
2022-11-05T14:01:21.138Z,11.84
2022-11-05T14:03:51.569Z,11.46
2022-11-05T14:06:26.434Z,11.60
2022-11-05T14:08:59.270Z,11.22
2022-11-05T14:11:30.436Z,11.25
2022-11-05T14:14:02.543Z,11.47
2022-11-05T14:16:49.307Z,11.95
2022-11-05T14:19:34.470Z,11.54
2022-11-05T14:22:39.396Z,11.98
2022-11-05T14:25:43.325Z,11.29
2022-11-05T14:28:42.526Z,11.38
2022-11-05T14:32:02.486Z,11.86
2022-11-05T14:34:24.984Z,11.80
2022-11-05T14:37:18.870Z,11.81
2022-11-05T14:39:47.876Z,11.48
2022-11-05T14:42:21.321Z,11.88
2022-11-05T14:45:21.300Z,11.55
2022-11-05T14:47:55.300Z,11.67
2022-11-05T14:50:31.900Z,11.72
2022-11-05T14:53:07.991Z,11.56
2022-11-05T14:55:38.896Z,10.90
2022-11-05T14:58:26.888Z,11.06
2022-11-05T15:00:57.434Z,11.60
2022-11-05T15:03:42.706Z,11.81
2022-11-05T15:06:29.619Z,12.46
2022-11-05T15:09:19.363Z,12.11
2022-11-05T15:11:58.444Z,11.35
2022-11-05T15:14:31.797Z,11.89
2022-11-05T15:17:09.447Z,11.56
2022-11-05T15:19:40.087Z,11.61
2022-11-05T15:22:19.491Z,11.65
2022-11-05T15:24:48.937Z,11.17
2022-11-05T15:27:23.705Z,11.48
2022-11-05T15:29:51.841Z,11.07
2022-11-05T15:32:34.612Z,11.13
2022-11-05T15:35:20.227Z,11.32
2022-11-05T15:37:54.687Z,11.22
2022-11-05T15:40:27.863Z,11.06
2022-11-05T15:43:17.613Z,11.18
2022-11-05T15:45:59.283Z,11.13
2022-11-05T15:48:28.718Z,11.27
2022-11-05T15:50:57.276Z,11.23
2022-11-05T15:54:02.208Z,10.74
2022-11-05T15:56:29.829Z,11.58
2022-11-05T15:59:02.043Z,11.27
2022-11-05T16:01:32.919Z,11.31
2022-11-05T16:04:12.739Z,11.33
2022-11-05T16:06:43.629Z,11.33
2022-11-05T16:09:22.938Z,11.77
2022-11-05T16:12:12.299Z,11.84
2022-11-05T16:14:40.769Z,11.72
2022-11-05T16:17:19.487Z,11.55
2022-11-05T16:19:49.838Z,12.22
2022-11-05T16:22:18.664Z,12.40
2022-11-05T16:24:47.240Z,12.37
2022-11-05T16:27:19.615Z,12.19
2022-11-05T16:29:51.356Z,12.21
2022-11-05T16:32:29.920Z,12.18
2022-11-05T16:35:01.924Z,11.55
2022-11-05T16:37:36.949Z,11.88
2022-11-05T16:40:14.233Z,11.48
2022-11-05T16:42:43.383Z,11.09
2022-11-05T16:45:14.847Z,10.73
2022-11-05T16:47:44.134Z,10.50
2022-11-05T16:50:19.703Z,10.45
2022-11-05T16:52:48.264Z,10.48
2022-11-05T16:55:17.929Z,10.69
2022-11-05T16:57:49.337Z,10.38
2022-11-05T17:00:19.182Z,10.62
2022-11-05T17:02:47.584Z,10.39
2022-11-05T17:05:24.149Z,10.53
2022-11-05T17:07:52.278Z,10.53
2022-11-05T17:10:21.056Z,10.33
2022-11-05T17:12:49.442Z,10.55
2022-11-05T17:15:20.308Z,10.43
2022-11-05T17:17:49.041Z,10.64
2022-11-05T17:20:38.292Z,10.35
2022-11-05T17:23:10.824Z,10.67
2022-11-05T17:25:40.624Z,10.73
2022-11-05T17:28:11.232Z,10.86
2022-11-05T17:30:41.850Z,10.46
2022-11-05T17:33:11.856Z,10.57
2022-11-05T17:35:43.219Z,10.60
2022-11-05T17:38:13.000Z,10.42
2022-11-05T17:40:42.218Z,10.33
2022-11-05T17:43:11.786Z,10.21
2022-11-05T17:45:44.393Z,10.28
2022-11-05T17:48:12.780Z,10.10
2022-11-05T17:50:43.195Z,10.15
2022-11-05T17:53:12.081Z,10.22
2022-11-05T17:55:41.706Z,10.35
2022-11-05T17:58:09.795Z,10.06
2022-11-05T18:00:38.305Z,10.35
2022-11-05T18:03:06.422Z,10.48
2022-11-05T18:05:35.726Z,10.17
2022-11-05T18:08:05.913Z,10.12
2022-11-05T18:10:33.925Z,10.30
2022-11-05T18:13:02.018Z,10.73
2022-11-05T18:15:30.172Z,10.37
2022-11-05T18:17:58.142Z,10.08
2022-11-05T18:20:26.148Z,10.30
2022-11-05T18:22:54.141Z,10.24
2022-11-05T18:25:23.540Z,10.09
2022-11-05T18:27:51.542Z,9.92
2022-11-05T18:30:19.620Z,10.19
2022-11-05T18:32:48.092Z,10.10
2022-11-05T18:35:16.093Z,10.31
2022-11-05T18:37:44.126Z,10.10
2022-11-05T18:40:13.116Z,10.10
2022-11-05T18:42:42.931Z,10.13
2022-11-05T18:45:12.381Z,10.16
2022-11-05T18:47:40.480Z,10.16
2022-11-05T18:50:10.575Z,10.23
2022-11-05T18:52:38.699Z,10.48
2022-11-05T18:55:08.059Z,10.35
2022-11-05T18:57:36.122Z,10.40
2022-11-05T19:00:06.577Z,10.45
2022-11-05T19:02:35.109Z,10.57
2022-11-05T19:07:51.478Z,11.37
2022-11-05T19:10:19.722Z,11.11
2022-11-05T19:12:47.933Z,11.22
2022-11-05T19:15:17.353Z,11.38
2022-11-05T19:17:45.417Z,11.48
2022-11-05T19:20:13.825Z,11.66
2022-11-05T19:22:41.886Z,11.41
2022-11-05T19:25:09.893Z,11.61
2022-11-05T19:27:38.716Z,11.62
2022-11-05T19:30:07.675Z,11.49
2022-11-05T19:32:37.241Z,12.02
2022-11-05T19:35:05.764Z,11.60
2022-11-05T19:37:33.792Z,11.50
2022-11-05T19:40:01.831Z,11.33
2022-11-05T19:42:29.786Z,11.72
2022-11-05T19:45:06.829Z,11.60
2022-11-05T19:47:46.383Z,11.94
2022-11-05T19:50:14.441Z,11.59
2022-11-05T19:52:42.434Z,11.76
2022-11-05T19:55:12.235Z,11.93
2022-11-05T19:57:40.570Z,11.86
2022-11-05T20:00:10.038Z,11.62
2022-11-05T20:02:38.865Z,11.61
2022-11-05T20:05:08.883Z,11.61
2022-11-05T20:07:37.038Z,11.48
2022-11-05T20:10:05.706Z,11.66
2022-11-05T20:12:34.509Z,11.68
2022-11-05T20:15:02.576Z,11.76
2022-11-05T20:17:30.609Z,11.63
2022-11-05T20:19:58.901Z,11.49
2022-11-05T20:22:28.813Z,11.42
2022-11-05T20:24:57.351Z,11.02
2022-11-05T20:27:25.322Z,11.09
2022-11-05T20:29:53.293Z,10.59
2022-11-05T20:32:21.322Z,10.54
2022-11-05T20:34:49.321Z,10.56
2022-11-05T20:37:17.385Z,10.49
2022-11-05T20:39:46.863Z,9.78
2022-11-05T20:42:14.871Z,9.92
2022-11-05T20:44:42.788Z,10.06
2022-11-05T20:47:11.583Z,9.92
2022-11-05T20:49:39.567Z,10.15
2022-11-05T20:52:07.625Z,9.97
2022-11-05T20:54:35.742Z,10.03
2022-11-05T20:57:05.167Z,9.79
2022-11-05T20:59:33.487Z,9.75
2022-11-05T21:02:01.749Z,9.81
2022-11-05T21:04:29.875Z,9.64
2022-11-05T21:06:57.917Z,9.86
2022-11-05T21:09:25.892Z,10.03
2022-11-05T21:12:11.753Z,9.96
2022-11-05T21:14:43.308Z,10.25
2022-11-05T21:17:13.053Z,9.94
2022-11-05T21:19:41.067Z,10.40
2022-11-05T21:22:09.188Z,10.10
2022-11-05T21:24:37.360Z,10.05
2022-11-05T21:27:05.488Z,10.67
2022-11-05T21:29:33.664Z,10.82
2022-11-05T21:32:02.997Z,10.71
2022-11-05T21:34:30.999Z,10.78
2022-11-05T21:36:59.327Z,11.06
2022-11-05T21:39:27.795Z,11.32
2022-11-05T21:41:55.791Z,11.75
2022-11-05T21:44:23.829Z,11.79
2022-11-05T21:46:52.538Z,11.96
2022-11-05T21:49:22.032Z,11.93
2022-11-05T21:52:07.605Z,11.85
2022-11-05T21:54:53.113Z,12.06
2022-11-05T21:57:39.313Z,12.04
2022-11-05T22:00:09.437Z,11.99
2022-11-05T22:02:38.089Z,12.18
2022-11-05T22:05:08.914Z,11.72
2022-11-05T22:07:40.031Z,11.43
2022-11-05T22:10:14.860Z,11.74
2022-11-05T22:12:44.685Z,11.22
2022-11-05T22:15:13.168Z,11.20
2022-11-05T22:17:46.223Z,11.10
2022-11-05T22:20:16.686Z,11.16
2022-11-05T22:22:44.808Z,11.36
2022-11-05T22:25:14.375Z,11.11
2022-11-05T22:27:43.945Z,11.28
2022-11-05T22:30:13.757Z,11.17
2022-11-05T22:32:41.931Z,10.66
2022-11-05T22:35:10.739Z,10.65
2022-11-05T22:37:40.174Z,10.71
2022-11-05T22:40:09.708Z,10.71
2022-11-05T22:42:37.877Z,10.99
2022-11-05T22:45:06.896Z,11.03
2022-11-05T22:47:34.898Z,11.21
2022-11-05T22:50:02.962Z,11.45
2022-11-05T22:52:31.028Z,11.14
2022-11-05T22:55:02.636Z,10.89
2022-11-05T22:57:30.668Z,10.69
2022-11-05T22:59:58.584Z,10.80
2022-11-05T23:02:26.835Z,10.75
2022-11-05T23:04:54.919Z,10.78
2022-11-05T23:07:40.624Z,10.43
2022-11-05T23:10:27.816Z,10.78
2022-11-05T23:12:55.976Z,10.63
2022-11-05T23:15:41.556Z,10.23
2022-11-05T23:18:28.033Z,10.57
2022-11-05T23:21:13.528Z,10.52
2022-11-05T23:23:59.144Z,10.44
2022-11-05T23:26:45.946Z,10.63
2022-11-05T23:29:13.990Z,10.55
2022-11-05T23:31:59.144Z,10.75
2022-11-05T23:34:27.329Z,10.74
2022-11-05T23:37:12.560Z,10.80
2022-11-05T23:39:42.894Z,10.67
2022-11-05T23:42:30.657Z,10.69
2022-11-05T23:45:16.419Z,10.67
2022-11-05T23:48:02.005Z,10.48
2022-11-05T23:50:35.434Z,10.58
2022-11-05T23:53:06.680Z,10.98
2022-11-05T23:55:34.668Z,10.41
2022-11-05T23:58:04.212Z,11.04
